Time;durP1;ratioP1;P1;durP2;ratioP2;P2;SDS_P1;SDS_P2;PMS_P1;PMS_P2;Temp;Humidity;BMP_temperature;BMP_pressure;BME280_temperature;BME280_humidity;BME280_pressure;Samples;Min_cycle;Max_cycle;Signal;HPM_P1;HPM_P2
2021/12/31 00:00:35;;;;;;;;;;;9.70;99.90;;;;;;4998571;28;20686;-71
2021/12/31 00:03:02;;;;;;;7.65;4.55;;;9.70;99.90;;;;;;4998674;28;19929;-71
2021/12/31 00:05:29;;;;;;;4.40;3.45;;;9.70;99.90;;;;;;4998668;28;20198;-71
2021/12/31 00:07:56;;;;;;;4.88;3.80;;;9.60;99.90;;;;;;4998829;28;20088;-71
2021/12/31 00:10:23;;;;;;;;;;;9.60;99.90;;;;;;4999275;28;20265;-70
2021/12/31 00:12:50;;;;;;;4.37;3.17;;;9.60;99.90;;;;;;4998387;28;19941;-70
2021/12/31 00:15:16;;;;;;;;;;;9.50;99.90;;;;;;4999821;28;20131;-70
2021/12/31 00:17:43;;;;;;;4.03;3.10;;;9.50;99.90;;;;;;4997026;28;20011;-71
2021/12/31 00:20:17;;;;;;;;;;;9.50;99.90;;;;;;4998354;28;20125;-70
2021/12/31 00:25:20;;;;;;;4.75;3.05;;;9.50;99.90;;;;;;4998452;28;20064;-70
2021/12/31 00:27:47;;;;;;;5.07;3.72;;;9.50;99.90;;;;;;4998353;28;20443;-71
2021/12/31 00:30:14;;;;;;;4.78;3.30;;;9.50;99.90;;;;;;4996504;28;20065;-71
2021/12/31 00:32:41;;;;;;;4.57;3.25;;;9.40;99.90;;;;;;4998663;28;20500;-71
2021/12/31 00:35:09;;;;;;;3.63;3.33;;;9.40;99.90;;;;;;4996779;28;20053;-70
2021/12/31 00:37:37;;;;;;;5.18;3.40;;;9.40;99.90;;;;;;4998641;28;20092;-70
2021/12/31 00:40:07;;;;;;;3.65;2.83;;;9.40;99.90;;;;;;4997267;28;20053;-70
2021/12/31 00:42:34;;;;;;;3.45;2.67;;;9.40;99.90;;;;;;4997809;28;20112;-70
2021/12/31 00:45:01;;;;;;;;;;;9.40;99.90;;;;;;4997295;28;20070;-70
2021/12/31 00:47:27;;;;;;;3.05;2.15;;;9.40;99.90;;;;;;4998265;28;20342;-71
2021/12/31 00:49:54;;;;;;;2.78;2.03;;;9.40;99.90;;;;;;4997157;28;20081;-70
2021/12/31 00:52:21;;;;;;;3.00;2.28;;;9.40;99.90;;;;;;4997943;28;20451;-70
2021/12/31 00:54:48;;;;;;;3.03;2.05;;;9.30;99.90;;;;;;4998408;28;20054;-71
2021/12/31 00:57:15;;;;;;;2.58;1.90;;;9.30;99.90;;;;;;4993998;28;20050;-71
2021/12/31 00:59:41;;;;;;;2.90;1.80;;;9.30;99.90;;;;;;4979442;28;20081;-71
2021/12/31 01:02:11;;;;;;;2.33;1.60;;;9.20;99.90;;;;;;4978216;28;20058;-70
2021/12/31 01:04:39;;;;;;;2.05;1.40;;;9.20;99.90;;;;;;4978342;28;20483;-70
2021/12/31 01:07:06;;;;;;;1.77;1.35;;;9.20;99.90;;;;;;4977654;28;20054;-70
2021/12/31 01:09:33;;;;;;;0.77;0.77;;;9.10;99.90;;;;;;4978336;28;20069;-70
2021/12/31 01:12:01;;;;;;;0.98;0.88;;;9.10;99.90;;;;;;4978160;28;20092;-71
2021/12/31 01:17:01;;;;;;;0.70;0.70;;;9.10;99.90;;;;;;4978801;28;20093;-70
2021/12/31 01:19:48;;;;;;;1.00;0.90;;;9.00;99.90;;;;;;4986449;28;20116;-70
2021/12/31 01:22:16;;;;;;;0.88;0.70;;;8.90;99.90;;;;;;4997882;28;20041;-70
2021/12/31 01:24:44;;;;;;;1.95;0.98;;;8.90;99.90;;;;;;4997168;28;20104;-70
2021/12/31 01:27:12;;;;;;;0.98;0.75;;;8.70;99.90;;;;;;4997706;28;20732;-70
2021/12/31 01:29:39;;;;;;;1.17;0.80;;;8.70;99.90;;;;;;4997233;28;20251;-70
2021/12/31 01:32:06;;;;;;;5.75;0.60;;;8.60;99.90;;;;;;4997786;28;20041;-70
2021/12/31 01:34:33;;;;;;;1.48;0.77;;;8.50;99.90;;;;;;4997333;28;20100;-70
2021/12/31 01:36:59;;;;;;;;;;;8.50;99.90;;;;;;4998384;28;20038;-70
2021/12/31 01:39:27;;;;;;;2.15;0.88;;;8.40;99.90;;;;;;4998659;28;19925;-71
2021/12/31 01:41:57;;;;;;;1.52;0.80;;;8.40;99.90;;;;;;4997461;28;20085;-70
2021/12/31 01:44:35;;;;;;;1.67;0.98;;;8.40;99.90;;;;;;4997228;28;20050;-70
2021/12/31 01:47:05;;;;;;;;;;;8.30;99.90;;;;;;4996835;28;20488;-70
2021/12/31 01:49:40;;;;;;;0.55;0.55;;;8.30;99.90;;;;;;4996449;28;20253;-71
2021/12/31 01:52:09;;;;;;;1.13;0.80;;;8.20;99.90;;;;;;4996934;28;20460;-70
2021/12/31 01:54:37;;;;;;;0.85;0.80;;;8.20;99.90;;;;;;4997363;28;20365;-70
2021/12/31 01:57:08;;;;;;;1.30;0.60;;;8.20;99.90;;;;;;4992836;28;20117;-70
2021/12/31 01:59:37;;;;;;;0.82;0.50;;;8.10;99.90;;;;;;4978659;28;20358;-70
2021/12/31 02:02:08;;;;;;;1.77;0.70;;;8.10;99.90;;;;;;4977259;28;20227;-70
2021/12/31 02:04:37;;;;;;;0.40;0.40;;;8.00;99.90;;;;;;4976505;28;20050;-71
2021/12/31 02:07:05;;;;;;;0.80;0.65;;;8.00;99.90;;;;;;4977239;28;20388;-70
2021/12/31 02:09:37;;;;;;;1.05;0.77;;;7.90;99.90;;;;;;4976574;28;20105;-69
2021/12/31 02:12:05;;;;;;;0.60;0.60;;;7.90;99.90;;;;;;4977149;28;20097;-70
2021/12/31 02:14:33;;;;;;;1.40;0.85;;;7.90;99.90;;;;;;4976704;28;20540;-70
2021/12/31 02:17:00;;;;;;;0.70;0.65;;;7.80;99.90;;;;;;4977742;28;20735;-69
2021/12/31 02:19:28;;;;;;;4.40;0.77;;;7.80;99.90;;;;;;4985991;28;20124;-70
2021/12/31 02:21:56;;;;;;;2.67;0.90;;;7.70;99.90;;;;;;4996203;28;20542;-71
2021/12/31 02:24:23;;;;;;;0.73;0.70;;;7.70;99.90;;;;;;4996335;28;20389;-70
2021/12/31 02:26:51;;;;;;;2.05;1.70;;;7.70;99.90;;;;;;4994941;28;20424;-71
2021/12/31 02:29:19;;;;;;;1.40;1.17;;;7.70;99.90;;;;;;4995643;28;20068;-70
2021/12/31 02:31:46;;;;;;;1.13;0.60;;;7.70;99.90;;;;;;5011637;28;20481;-70
2021/12/31 02:34:13;;;;;;;0.75;0.70;;;7.60;99.90;;;;;;4997482;28;20095;-70
2021/12/31 02:36:39;;;;;;;0.57;0.57;;;7.60;99.90;;;;;;4997507;28;20155;-70
2021/12/31 02:39:07;;;;;;;0.93;0.60;;;7.60;99.90;;;;;;4997253;28;20649;-70
2021/12/31 02:41:34;;;;;;;2.00;0.60;;;7.50;99.90;;;;;;4996425;28;20975;-71
2021/12/31 02:44:01;;;;;;;0.70;0.55;;;7.40;99.90;;;;;;4995700;28;20108;-70
2021/12/31 02:46:27;;;;;;;;;;;7.40;99.90;;;;;;4997030;28;20042;-70
2021/12/31 02:48:58;;;;;;;0.65;0.60;;;7.40;99.90;;;;;;4995648;28;20044;-70
2021/12/31 02:51:26;;;;;;;1.10;0.52;;;7.30;99.90;;;;;;4996496;28;20049;-71
2021/12/31 02:53:55;;;;;;;0.75;0.63;;;7.30;99.90;;;;;;4995882;28;20096;-70
2021/12/31 02:56:23;;;;;;;0.93;0.65;;;7.20;99.90;;;;;;4995406;28;20441;-70
2021/12/31 02:58:51;;;;;;;0.68;0.68;;;7.20;99.90;;;;;;4991581;28;20050;-70
2021/12/31 03:01:18;;;;;;;1.17;0.63;;;7.20;99.90;;;;;;4996148;28;20551;-70
2021/12/31 03:03:48;;;;;;;0.50;0.50;;;7.10;99.90;;;;;;4995999;28;20100;-70
2021/12/31 03:06:16;;;;;;;1.80;0.82;;;7.10;99.90;;;;;;4995714;28;20121;-71
2021/12/31 03:08:48;;;;;;;0.60;0.60;;;7.10;99.90;;;;;;4997281;28;20042;-70
2021/12/31 03:11:18;;;;;;;1.48;0.98;;;7.10;99.90;;;;;;4999385;28;20088;-71
2021/12/31 03:13:51;;;;;;;1.23;0.50;;;7.00;99.90;;;;;;5000093;28;20085;-70
2021/12/31 03:16:22;;;;;;;0.38;0.38;;;7.00;99.90;;;;;;5000039;28;20045;-71
2021/12/31 03:18:50;;;;;;;0.40;0.40;;;7.00;99.90;;;;;;4984656;28;20084;-70
2021/12/31 03:21:22;;;;;;;0.50;0.50;;;7.00;99.90;;;;;;4998600;28;20524;-70
2021/12/31 03:23:52;;;;;;;1.52;0.70;;;6.90;99.90;;;;;;4999927;28;20499;-70
2021/12/31 03:26:20;;;;;;;0.75;0.47;;;6.90;99.90;;;;;;4999396;28;20111;-70
2021/12/31 03:28:48;;;;;;;1.85;0.85;;;6.90;99.90;;;;;;4999155;28;20144;-70
2021/12/31 03:31:14;;;;;;;0.60;0.47;;;6.80;99.90;;;;;;4999324;28;20582;-70
2021/12/31 03:33:41;;;;;;;;;;;6.80;99.90;;;;;;5000023;28;20129;-71
2021/12/31 03:36:08;;;;;;;1.02;0.60;;;6.80;99.90;;;;;;4999862;28;20015;-70
2021/12/31 03:38:35;;;;;;;;;;;6.70;99.90;;;;;;5000561;28;20119;-70
2021/12/31 03:41:01;;;;;;;0.70;0.70;;;6.70;99.90;;;;;;4998677;28;19957;-71
2021/12/31 03:43:28;;;;;;;;;;;6.70;99.90;;;;;;4999837;28;20061;-70
2021/12/31 03:45:55;;;;;;;0.90;0.70;;;6.60;99.90;;;;;;4998649;28;19933;-71
2021/12/31 03:48:21;;;;;;;;;;;6.60;99.90;;;;;;5000311;28;20065;-70
2021/12/31 03:50:49;;;;;;;1.33;0.93;;;6.50;99.90;;;;;;4998639;28;19933;-70
2021/12/31 03:53:15;;;;;;;0.82;0.65;;;6.50;99.90;;;;;;4999963;28;20050;-70
2021/12/31 03:55:43;;;;;;;0.98;0.70;;;6.40;99.90;;;;;;4995487;28;20108;-70
2021/12/31 03:58:10;;;;;;;0.93;0.65;;;6.40;99.90;;;;;;4993474;28;20343;-70
2021/12/31 04:00:36;;;;;;;;;;;6.40;99.90;;;;;;4984006;28;20049;-70
2021/12/31 04:03:10;;;;;;;1.58;0.80;;;6.30;99.90;;;;;;4998825;28;20339;-70
2021/12/31 04:05:40;;;;;;;0.75;0.60;;;6.30;99.90;;;;;;4998952;28;20558;-69
2021/12/31 04:08:07;;;;;;;2.80;0.77;;;6.30;99.90;;;;;;4999121;28;20508;-70
2021/12/31 04:10:35;;;;;;;0.63;0.55;;;6.30;99.90;;;;;;4998832;28;20527;-70
2021/12/31 04:13:02;;;;;;;0.88;0.70;;;6.20;99.90;;;;;;4998737;28;20065;-71
2021/12/31 04:15:28;;;;;;;1.10;0.77;;;6.20;99.90;;;;;;4998825;28;20393;-70
2021/12/31 04:17:55;;;;;;;0.68;0.68;;;6.20;99.90;;;;;;4985964;28;20503;-70
2021/12/31 04:20:34;;;;;;;0.60;0.60;;;6.20;99.90;;;;;;4995912;28;20103;-70
2021/12/31 04:23:14;;;;;;;0.68;0.68;;;6.20;99.90;;;;;;4998021;28;20069;-70
2021/12/31 04:25:42;;;;;;;0.90;0.68;;;6.20;99.90;;;;;;4998595;28;20329;-71
2021/12/31 04:28:09;;;;;;;0.50;0.50;;;6.20;99.90;;;;;;4999208;28;20642;-70
2021/12/31 04:30:36;;;;;;;1.15;0.70;;;6.20;99.90;;;;;;4997836;28;20046;-70
2021/12/31 04:33:03;;;;;;;1.13;0.80;;;6.20;99.90;;;;;;4998054;28;20376;-70
2021/12/31 04:35:30;;;;;;;;;;;6.20;99.90;;;;;;4998688;28;20317;-70
2021/12/31 04:37:56;;;;;;;1.35;1.10;;;6.20;99.90;;;;;;4998352;28;20416;-70
2021/12/31 04:40:23;;;;;;;0.77;0.77;;;6.20;99.90;;;;;;4996884;28;20104;-70
2021/12/31 04:42:50;;;;;;;;;;;6.20;99.90;;;;;;4997030;28;20503;-70
2021/12/31 04:45:18;;;;;;;1.10;0.77;;;6.20;99.90;;;;;;4997833;28;20716;-70
2021/12/31 04:47:45;;;;;;;0.93;0.70;;;6.20;99.90;;;;;;4998140;28;20042;-70
2021/12/31 04:50:12;;;;;;;0.70;0.70;;;6.20;99.90;;;;;;4997921;28;20053;-71
2021/12/31 04:52:39;;;;;;;;;;;6.20;99.90;;;;;;4998815;28;20104;-70
2021/12/31 04:55:06;;;;;;;3.80;0.80;;;6.20;99.90;;;;;;4997264;28;19925;-70
2021/12/31 04:57:33;;;;;;;0.60;0.60;;;6.20;99.90;;;;;;4993831;28;20460;-70
2021/12/31 05:00:00;;;;;;;;;;;6.20;99.90;;;;;;4978778;28;20504;-71
2021/12/31 05:02:26;;;;;;;1.02;0.93;;;6.20;99.90;;;;;;4977866;28;19933;-70
2021/12/31 05:04:53;;;;;;;0.90;0.90;;;6.20;99.90;;;;;;4978308;28;20198;-70
2021/12/31 05:07:20;;;;;;;1.23;0.95;;;6.20;99.90;;;;;;4978154;28;20125;-71
2021/12/31 05:09:47;;;;;;;1.35;0.90;;;6.20;99.90;;;;;;4977354;28;20073;-70
2021/12/31 05:12:20;;;;;;;0.85;0.82;;;6.20;99.90;;;;;;4978708;28;20187;-70
2021/12/31 05:14:47;;;;;;;1.85;1.48;;;6.20;99.90;;;;;;4977927;28;20059;-70
2021/12/31 05:17:14;;;;;;;1.48;1.38;;;6.20;99.90;;;;;;4978901;28;20054;-70
2021/12/31 05:19:43;;;;;;;;;;;6.20;99.90;;;;;;5004250;28;20630;-70
2021/12/31 05:22:14;;;;;;;2.08;1.30;;;6.10;99.90;;;;;;4997710;28;19932;-71
2021/12/31 05:24:41;;;;;;;1.60;1.08;;;6.10;99.90;;;;;;4996940;28;20046;-70
2021/12/31 05:27:08;;;;;;;1.48;0.80;;;6.10;99.90;;;;;;4997617;28;20045;-70
2021/12/31 05:29:35;;;;;;;;;;;6.10;99.90;;;;;;4997325;28;20564;-70
2021/12/31 05:32:02;;;;;;;2.63;0.70;;;6.10;99.90;;;;;;5011163;28;19926;-71
2021/12/31 05:34:29;;;;;;;0.75;0.68;;;6.00;99.90;;;;;;4997514;28;20045;-70
2021/12/31 05:36:56;;;;;;;;;;;6.00;99.90;;;;;;4997246;28;20077;-70
2021/12/31 05:39:25;;;;;;;1.50;0.90;;;6.00;99.90;;;;;;4996423;28;20446;-70
2021/12/31 05:41:52;;;;;;;1.25;0.73;;;6.00;99.90;;;;;;4997497;28;20181;-70
2021/12/31 05:44:19;;;;;;;0.68;0.65;;;5.90;99.90;;;;;;4997187;28;20096;-70
2021/12/31 05:46:49;;;;;;;1.02;1.00;;;5.90;99.90;;;;;;4996737;28;20137;-70
2021/12/31 05:49:17;;;;;;;0.80;0.80;;;5.90;99.90;;;;;;4997050;28;20103;-70
2021/12/31 05:51:44;;;;;;;;;;;5.90;99.90;;;;;;4996914;28;20046;-71
2021/12/31 05:54:11;;;;;;;0.95;0.60;;;5.90;99.90;;;;;;4995727;28;19926;-70
2021/12/31 05:56:37;;;;;;;0.88;0.88;;;5.90;99.90;;;;;;4993088;28;20100;-69
2021/12/31 05:59:04;;;;;;;;;;;5.80;99.90;;;;;;4994256;28;20046;-70
2021/12/31 06:01:31;;;;;;;1.45;0.77;;;5.80;99.90;;;;;;4995212;28;19925;-71
2021/12/31 06:03:58;;;;;;;3.17;1.00;;;5.80;99.90;;;;;;4995886;28;20147;-70
2021/12/31 06:06:24;;;;;;;1.83;1.05;;;5.80;99.90;;;;;;4996663;28;20049;-70
2021/12/31 06:08:51;;;;;;;;;;;5.80;99.90;;;;;;4996424;28;20058;-70
2021/12/31 06:11:18;;;;;;;1.05;0.95;;;5.80;99.90;;;;;;4996115;28;20353;-69
2021/12/31 06:13:49;;;;;;;1.25;0.80;;;5.80;99.90;;;;;;4996390;28;20050;-70
2021/12/31 06:16:16;;;;;;;1.10;1.00;;;5.70;99.90;;;;;;4995774;28;20046;-60
2021/12/31 06:18:43;;;;;;;2.55;1.13;;;5.70;99.90;;;;;;4981740;28;20056;-58
2021/12/31 06:21:10;;;;;;;;;;;5.60;99.90;;;;;;4996221;28;20582;-58
2021/12/31 06:23:36;;;;;;;1.52;1.02;;;5.60;99.90;;;;;;5010944;28;20464;-58
2021/12/31 06:26:24;;;;;;;2.88;1.85;;;5.60;99.90;;;;;;5007882;28;20128;-58
2021/12/31 06:28:50;;;;;;;2.15;1.25;;;5.60;99.90;;;;;;4995680;28;20046;-59
2021/12/31 06:31:17;;;;;;;1.73;1.33;;;5.60;99.90;;;;;;4995827;28;20049;-59
2021/12/31 06:33:44;;;;;;;2.08;1.13;;;5.60;99.90;;;;;;4994359;28;20050;-59
2021/12/31 06:36:11;;;;;;;;;;;5.60;99.90;;;;;;4996332;28;20483;-59
2021/12/31 06:38:37;;;;;;;2.20;0.80;;;5.60;99.90;;;;;;4994996;28;19957;-58
2021/12/31 06:41:04;;;;;;;;;;;5.50;99.90;;;;;;4995465;28;20058;-58
2021/12/31 06:43:31;;;;;;;1.20;1.10;;;5.50;99.90;;;;;;4995683;28;19929;-58
2021/12/31 06:45:57;;;;;;;;;;;5.50;99.90;;;;;;4995811;28;20057;-58
2021/12/31 06:48:24;;;;;;;1.40;0.98;;;5.50;99.90;;;;;;4996012;28;20211;-58
2021/12/31 06:50:51;;;;;;;;;;;5.50;99.90;;;;;;4995312;28;20056;-58
2021/12/31 06:53:18;;;;;;;3.45;1.55;;;5.50;99.90;;;;;;4978571;28;20475;-59
2021/12/31 06:55:45;;;;;;;4.45;1.42;;;5.50;99.90;;;;;;4991292;28;20038;-58
2021/12/31 06:58:11;;;;;;;2.80;1.98;;;5.50;99.90;;;;;;4995081;28;20030;-58
2021/12/31 07:00:38;;;;;;;;;;;5.50;99.90;;;;;;4994029;28;20030;-59
2021/12/31 07:03:07;;;;;;;5.53;2.63;;;5.50;99.90;;;;;;4994286;28;20432;-58
2021/12/31 07:05:35;;;;;;;6.00;2.90;;;5.50;99.90;;;;;;5009575;28;20125;-59
2021/12/31 07:08:02;;;;;;;5.25;2.75;;;5.50;99.90;;;;;;4995308;28;20644;-59
2021/12/31 07:10:32;;;;;;;8.00;3.83;;;5.40;99.90;;;;;;4995225;28;20042;-58
2021/12/31 07:13:01;;;;;;;6.03;2.05;;;5.40;99.90;;;;;;4994831;28;20077;-59
2021/12/31 07:15:28;;;;;;;6.22;2.63;;;5.50;99.90;;;;;;4993686;28;20054;-59
2021/12/31 07:17:55;;;;;;;2.60;1.92;;;5.50;99.90;;;;;;4993104;28;20065;-58
2021/12/31 07:20:22;;;;;;;3.50;2.08;;;5.40;99.90;;;;;;4994401;28;20144;-58
2021/12/31 07:22:48;;;;;;;;;;;5.40;99.90;;;;;;4986459;28;20536;-58
2021/12/31 07:25:15;;;;;;;4.30;1.60;;;5.40;99.90;;;;;;4994273;28;20173;-57
2021/12/31 07:27:42;;;;;;;1.83;1.35;;;5.40;99.90;;;;;;4995494;28;20050;-58
2021/12/31 07:30:09;;;;;;;1.30;1.10;;;5.40;99.90;;;;;;4990284;28;20050;-56
2021/12/31 07:32:37;;;;;;;1.67;1.20;;;5.40;99.90;;;;;;4973813;28;20108;-56
2021/12/31 07:35:05;;;;;;;2.88;2.10;;;5.30;99.90;;;;;;4992938;28;20061;-56
2021/12/31 07:37:32;;;;;;;6.47;3.25;;;5.40;99.90;;;;;;4993439;28;20116;-55
2021/12/31 07:40:03;;;;;;;;;;;5.60;99.90;;;;;;4994486;28;20045;-55
2021/12/31 07:42:30;;;;;;;3.92;2.58;;;5.80;99.90;;;;;;4994843;28;19936;-55
2021/12/31 07:44:57;;;;;;;13.35;8.73;;;6.10;99.90;;;;;;4994576;28;20061;-56
2021/12/31 07:47:24;;;;;;;25.55;9.80;;;6.30;99.90;;;;;;4981355;28;20050;-59
2021/12/31 07:49:51;;;;;;;8.15;3.53;;;6.70;99.90;;;;;;4974926;28;20346;-59
2021/12/31 07:52:18;;;;;;;;;;;7.00;99.90;;;;;;4994788;28;20046;-59
2021/12/31 07:54:45;;;;;;;2.70;1.63;;;7.20;99.90;;;;;;4996096;28;20387;-59
2021/12/31 07:57:12;;;;;;;;;;;7.50;99.90;;;;;;5011813;28;20045;-59
2021/12/31 07:59:38;;;;;;;3.20;1.77;;;7.80;99.90;;;;;;4996030;28;19921;-59
2021/12/31 08:02:05;;;;;;;2.25;1.52;;;8.10;99.90;;;;;;4998396;28;20516;-59
2021/12/31 08:04:33;;;;;;;;;;;8.30;99.90;;;;;;4998707;28;20045;-59
2021/12/31 08:07:00;;;;;;;2.22;1.65;;;8.50;99.90;;;;;;4998433;28;19925;-59
2021/12/31 08:09:26;;;;;;;2.75;1.95;;;8.70;99.90;;;;;;4997898;28;20135;-58
2021/12/31 08:11:53;;;;;;;2.63;1.60;;;8.80;99.90;;;;;;4996711;28;20046;-59
2021/12/31 08:14:20;;;;;;;3.22;2.13;;;8.90;99.90;;;;;;4997747;28;20053;-55
2021/12/31 08:16:48;;;;;;;3.45;2.00;;;8.90;99.90;;;;;;4992586;28;20515;-59
2021/12/31 08:19:14;;;;;;;2.10;1.70;;;9.00;99.90;;;;;;4994129;28;20045;-59
2021/12/31 08:21:41;;;;;;;;;;;8.90;99.90;;;;;;4997674;28;20046;-59
2021/12/31 08:24:08;;;;;;;2.80;2.05;;;9.00;99.90;;;;;;4997960;28;19929;-59
2021/12/31 08:26:34;;;;;;;3.70;2.70;;;9.00;99.90;;;;;;4997698;28;20281;-59
2021/12/31 08:29:01;;;;;;;3.17;2.20;;;9.10;99.90;;;;;;4997427;28;20046;-59
2021/12/31 08:31:28;;;;;;;3.20;2.25;;;9.10;99.90;;;;;;4997842;28;20781;-59
2021/12/31 08:33:55;;;;;;;5.30;2.38;;;9.20;99.90;;;;;;4997663;28;20046;-60
2021/12/31 08:36:21;;;;;;;3.45;2.40;;;9.30;99.90;;;;;;4998085;28;20903;-60
2021/12/31 08:38:48;;;;;;;4.60;2.10;;;9.50;99.90;;;;;;4997201;28;20053;-59
2021/12/31 08:41:15;;;;;;;;;;;9.70;99.90;;;;;;4998453;28;20069;-60
2021/12/31 08:44:01;;;;;;;5.57;2.13;;;9.90;99.90;;;;;;4997574;28;19935;-59
2021/12/31 08:46:30;;;;;;;3.13;2.42;;;10.10;99.90;;;;;;4998468;28;20046;-59
2021/12/31 08:48:57;;;;;;;3.78;2.15;;;10.30;99.90;;;;;;4997500;28;20077;-59
2021/12/31 08:51:24;;;;;;;5.18;2.17;;;10.40;99.90;;;;;;4998921;28;20046;-59
2021/12/31 08:53:52;;;;;;;4.60;2.70;;;10.60;99.90;;;;;;4999419;28;20045;-59
2021/12/31 08:56:19;;;;;;;3.35;1.92;;;10.80;99.90;;;;;;4997495;28;20447;-59
2021/12/31 08:58:46;;;;;;;;;;;10.90;99.90;;;;;;4994827;28;20497;-60
2021/12/31 09:01:13;;;;;;;3.00;2.08;;;11.10;99.90;;;;;;4997140;28;19975;-60
2021/12/31 09:03:40;;;;;;;3.38;2.25;;;11.20;99.90;;;;;;4997844;28;20431;-59
2021/12/31 09:06:07;;;;;;;2.83;1.90;;;11.20;99.90;;;;;;4996208;28;20037;-59
2021/12/31 09:08:34;;;;;;;;;;;11.40;99.90;;;;;;4998025;28;20056;-59
2021/12/31 09:11:02;;;;;;;6.27;2.00;;;11.50;99.90;;;;;;4996202;28;19960;-59
2021/12/31 09:13:29;;;;;;;2.65;1.92;;;11.60;99.90;;;;;;4995269;28;20061;-60
2021/12/31 09:15:55;;;;;;;6.30;2.15;;;11.70;99.90;;;;;;4997496;28;20108;-60
2021/12/31 09:18:22;;;;;;;3.78;2.22;;;11.90;99.90;;;;;;4995165;28;20819;-59
2021/12/31 09:20:49;;;;;;;3.15;2.40;;;12.10;99.90;;;;;;4996392;28;20479;-59
2021/12/31 09:23:16;;;;;;;5.03;2.30;;;12.30;99.90;;;;;;4997075;28;20046;-56
2021/12/31 09:25:43;;;;;;;4.07;2.70;;;12.40;99.90;;;;;;4994431;28;20470;-55
2021/12/31 09:28:10;;;;;;;4.72;2.30;;;12.60;99.90;;;;;;4997275;28;20041;-56
2021/12/31 09:30:38;;;;;;;3.33;2.53;;;12.70;99.90;;;;;;4995052;28;20081;-55
2021/12/31 09:33:05;;;;;;;;;;;12.80;99.90;;;;;;4997327;28;20049;-55
2021/12/31 09:35:32;;;;;;;3.20;2.78;;;13.00;99.90;;;;;;4994733;28;19925;-56
2021/12/31 09:38:00;;;;;;;3.70;2.00;;;13.20;99.90;;;;;;4996903;28;20068;-57
2021/12/31 09:40:27;;;;;;;3.38;2.10;;;13.50;99.90;;;;;;4995194;28;20042;-56
2021/12/31 09:43:04;;;;;;;5.85;2.13;;;13.70;99.90;;;;;;4994018;28;20153;-56
2021/12/31 09:45:33;;;;;;;11.25;2.45;;;13.90;99.90;;;;;;4991742;28;20050;-57
2021/12/31 09:48:10;;;;;;;3.35;2.20;;;14.00;99.90;;;;;;4976520;28;20057;-57
2021/12/31 09:50:40;;;;;;;3.53;2.05;;;14.20;99.90;;;;;;4976106;28;20630;-61
2021/12/31 09:53:09;;;;;;;3.55;2.33;;;14.30;99.90;;;;;;4991999;28;20597;-61
2021/12/31 09:55:37;;;;;;;4.07;1.88;;;14.40;99.90;;;;;;4996024;28;20127;-62
2021/12/31 09:58:04;;;;;;;3.10;2.17;;;14.60;99.90;;;;;;4979894;28;20053;-61
2021/12/31 10:00:38;;;;;;;4.28;2.17;;;14.70;99.90;;;;;;4976747;28;20143;-62
2021/12/31 10:03:25;;;;;;;3.33;2.28;;;14.90;99.90;;;;;;4975927;28;20453;-62
2021/12/31 10:05:53;;;;;;;3.20;2.30;;;15.00;99.90;;;;;;4976024;28;20038;-62
2021/12/31 10:08:23;;;;;;;3.97;1.75;;;15.10;99.90;;;;;;4976582;28;20078;-61
2021/12/31 10:11:17;;;;;;;2.20;2.00;;;15.30;99.30;;;;;;4975811;28;20097;-60
2021/12/31 10:13:56;;;;;;;4.55;2.15;;;15.50;98.40;;;;;;4976926;28;20046;-59
2021/12/31 10:16:40;;;;;;;2.53;1.98;;;15.70;96.20;;;;;;4974572;28;20776;-59
2021/12/31 10:19:12;;;;;;;3.22;1.88;;;15.80;95.60;;;;;;4982701;28;20565;-60
2021/12/31 10:21:46;;;;;;;5.47;2.10;;;15.90;95.70;;;;;;4995758;28;20053;-61
2021/12/31 10:24:25;;;;;;;4.30;1.77;;;16.00;94.60;;;;;;4996392;28;20045;-60
2021/12/31 10:26:54;;;;;;;3.08;1.80;;;16.10;94.10;;;;;;4994538;28;20045;-60
2021/12/31 10:29:21;;;;;;;2.15;1.50;;;16.20;94.20;;;;;;4995897;28;20131;-61
2021/12/31 10:31:52;;;;;;;3.28;1.80;;;16.30;92.40;;;;;;4995597;28;20144;-60
2021/12/31 10:34:34;;;;;;;3.35;2.00;;;16.40;92.70;;;;;;4995497;28;20046;-61
2021/12/31 10:37:02;;;;;;;3.22;2.05;;;16.50;93.20;;;;;;4995588;28;20049;-61
2021/12/31 10:39:37;;;;;;;2.88;1.90;;;16.60;92.00;;;;;;4994672;28;20551;-60
2021/12/31 10:42:07;;;;;;;2.45;1.85;;;16.80;90.80;;;;;;4993750;28;20621;-63
2021/12/31 10:44:52;;;;;;;7.25;1.90;;;17.00;92.30;;;;;;4995454;28;20049;-60
2021/12/31 10:47:21;;;;;;;2.05;1.60;;;17.30;92.00;;;;;;4995332;28;20125;-60
2021/12/31 10:50:03;;;;;;;1.77;1.40;;;17.50;92.30;;;;;;4994351;28;20061;-60
2021/12/31 10:52:39;;;;;;;2.25;1.48;;;17.90;91.10;;;;;;4995419;28;20266;-58
2021/12/31 10:57:45;;;;;;;2.03;1.80;;;18.50;81.50;;;;;;4989310;28;20104;-60
2021/12/31 11:00:13;;;;;;;3.20;1.83;;;18.70;74.80;;;;;;4994850;28;20198;-60
2021/12/31 11:02:40;;;;;;;2.53;1.77;;;19.00;70.20;;;;;;4995209;28;20049;-61
2021/12/31 11:05:10;;;;;;;2.63;1.85;;;19.10;67.70;;;;;;4995511;28;20042;-60
2021/12/31 11:07:38;;;;;;;2.65;2.20;;;19.20;66.30;;;;;;4995722;28;20034;-60
2021/12/31 11:10:27;;;;;;;2.30;1.60;;;19.40;66.30;;;;;;5007283;28;20073;-60
2021/12/31 11:12:55;;;;;;;6.78;2.25;;;19.60;65.60;;;;;;4995323;28;20050;-60
2021/12/31 11:15:21;;;;;;;3.13;2.03;;;19.80;64.10;;;;;;4995005;28;20049;-58
2021/12/31 11:17:52;;;;;;;5.25;2.20;;;20.00;62.20;;;;;;4993842;28;20042;-61
2021/12/31 11:20:23;;;;;;;2.85;1.90;;;20.20;60.50;;;;;;4994410;28;20054;-60
2021/12/31 11:22:51;;;;;;;3.75;1.58;;;20.30;59.60;;;;;;4995311;28;20053;-60
2021/12/31 11:25:51;;;;;;;2.17;1.85;;;20.50;60.00;;;;;;4995550;28;20077;-61
2021/12/31 11:28:29;;;;;;;3.03;1.27;;;20.60;58.30;;;;;;4996836;28;20781;-59
2021/12/31 11:31:16;;;;;;;2.55;1.70;;;20.60;56.60;;;;;;4998529;28;20057;-60
2021/12/31 11:33:59;;;;;;;;;;;20.60;54.60;;;;;;5001122;28;20578;-58
2021/12/31 11:36:52;;;;;;;3.85;1.42;;;20.60;54.70;;;;;;4999686;28;20462;-57
2021/12/31 11:39:30;;;;;;;4.47;2.42;;;20.60;56.90;;;;;;4998302;28;20099;-58
2021/12/31 11:42:01;;;;;;;2.25;1.80;;;20.50;58.80;;;;;;4998385;28;20194;-57
2021/12/31 11:44:29;;;;;;;2.90;1.90;;;20.40;60.60;;;;;;4998563;28;20053;-57
2021/12/31 11:47:14;;;;;;;2.45;2.05;;;20.30;61.90;;;;;;4998376;28;20548;-58
2021/12/31 11:49:41;;;;;;;5.95;1.98;;;20.20;64.10;;;;;;4998371;28;20377;-56
2021/12/31 11:52:12;;;;;;;7.75;2.35;;;20.00;66.70;;;;;;4991208;28;20484;-56
2021/12/31 11:54:44;;;;;;;1.75;1.50;;;19.80;68.70;;;;;;4979102;28;20046;-56
2021/12/31 11:57:17;;;;;;;2.65;2.00;;;19.60;70.10;;;;;;4992783;28;20131;-57
2021/12/31 11:59:54;;;;;;;2.88;2.03;;;19.50;72.00;;;;;;4996475;28;20061;-56
2021/12/31 12:02:35;;;;;;;2.10;1.92;;;19.60;72.70;;;;;;4998851;28;20042;-61
2021/12/31 12:05:11;;;;;;;2.08;1.83;;;19.60;72.50;;;;;;4998342;28;20050;-61
2021/12/31 12:07:49;;;;;;;2.72;1.95;;;19.60;71.80;;;;;;4998363;28;20056;-60
2021/12/31 12:10:19;;;;;;;2.72;1.98;;;19.60;72.60;;;;;;4997744;28;20050;-60
2021/12/31 12:12:52;;;;;;;2.65;1.73;;;19.50;70.80;;;;;;4998706;28;20053;-60
2021/12/31 12:15:18;;;;;;;2.85;1.83;;;19.50;70.70;;;;;;4997725;28;20053;-61
2021/12/31 12:17:45;;;;;;;;;;;19.60;71.60;;;;;;4997993;28;20057;-60
2021/12/31 12:20:20;;;;;;;4.50;2.33;;;19.60;70.80;;;;;;4998012;28;19972;-60
2021/12/31 12:22:54;;;;;;;2.78;2.20;;;19.60;70.50;;;;;;4998296;28;20046;-60
2021/12/31 12:25:27;;;;;;;2.50;2.00;;;19.60;69.60;;;;;;4997810;28;20046;-61
2021/12/31 12:27:56;;;;;;;3.17;2.28;;;19.60;70.00;;;;;;4998257;28;20034;-60
2021/12/31 12:30:27;;;;;;;4.05;2.15;;;19.70;69.40;;;;;;4997688;28;20034;-60
2021/12/31 12:35:36;;;;;;;3.78;2.38;;;19.80;68.00;;;;;;4998191;28;20053;-61
2021/12/31 12:38:06;;;;;;;4.55;2.03;;;19.90;67.70;;;;;;4997514;28;20112;-60
2021/12/31 12:40:36;;;;;;;6.00;2.63;;;19.90;68.60;;;;;;4997066;28;20426;-61
2021/12/31 12:43:23;;;;;;;3.38;2.60;;;19.90;67.40;;;;;;4997651;28;20579;-61
2021/12/31 12:46:01;;;;;;;2.97;2.67;;;20.00;67.30;;;;;;4997545;28;20042;-61
2021/12/31 12:48:42;;;;;;;3.00;2.40;;;20.00;66.00;;;;;;4996416;28;20436;-57
2021/12/31 12:51:14;;;;;;;3.35;2.47;;;20.00;66.40;;;;;;4996587;28;20046;-58
2021/12/31 12:53:44;;;;;;;3.40;2.03;;;20.10;66.00;;;;;;4978589;28;20493;-58
2021/12/31 12:56:13;;;;;;;7.65;3.88;;;20.20;63.00;;;;;;4980668;28;20042;-57
2021/12/31 12:58:52;;;;;;;4.18;2.75;;;20.10;64.80;;;;;;4981646;28;20058;-58
2021/12/31 13:01:45;;;;;;;3.28;2.95;;;20.00;67.50;;;;;;4977968;28;20054;-57
2021/12/31 13:04:14;;;;;;;2.92;2.22;;;20.10;66.80;;;;;;4978292;28;20126;-57
2021/12/31 13:07:02;;;;;;;4.32;2.72;;;20.10;68.30;;;;;;4978069;28;20034;-58
2021/12/31 13:09:31;;;;;;;3.70;2.67;;;20.20;70.00;;;;;;4977069;28;20372;-58
2021/12/31 13:12:02;;;;;;;4.47;2.55;;;20.30;69.60;;;;;;4992333;28;20335;-58
2021/12/31 13:14:31;;;;;;;3.88;2.28;;;20.40;70.80;;;;;;4977176;28;20447;-57
2021/12/31 13:16:59;;;;;;;1.77;1.40;;;20.40;66.70;;;;;;4976797;28;20050;-60
2021/12/31 13:19:33;;;;;;;1.90;1.70;;;20.50;60.10;;;;;;4986879;28;20503;-57
2021/12/31 13:22:02;;;;;;;3.25;1.50;;;20.60;58.50;;;;;;4997340;28;20056;-59
2021/12/31 13:24:29;;;;;;;1.40;1.30;;;20.60;58.40;;;;;;4996835;28;20077;-60
2021/12/31 13:27:03;;;;;;;4.32;1.42;;;20.60;54.60;;;;;;4996979;28;20492;-59